createdAt,value
2018-07-19T00:01:16.515Z,15.90
2018-07-19T00:03:45.345Z,15.80
2018-07-19T00:06:14.071Z,15.70
2018-07-19T00:08:42.871Z,15.70
2018-07-19T00:11:11.599Z,15.60
2018-07-19T00:13:40.328Z,15.60
2018-07-19T00:16:09.005Z,15.50
2018-07-19T00:18:37.690Z,15.50
2018-07-19T00:21:06.432Z,15.40
2018-07-19T00:23:35.130Z,15.40
2018-07-19T00:26:03.858Z,15.40
2018-07-19T00:28:32.545Z,15.30
2018-07-19T00:31:01.249Z,15.30
2018-07-19T00:33:29.934Z,15.20
2018-07-19T00:35:58.692Z,15.10
2018-07-19T00:40:55.769Z,15.10
2018-07-19T00:43:24.559Z,15.10
2018-07-19T00:45:53.292Z,15.00
2018-07-19T00:48:22.018Z,15.00
2018-07-19T00:50:50.769Z,14.90
2018-07-19T00:53:19.503Z,14.80
2018-07-19T00:55:48.239Z,14.80
2018-07-19T00:58:16.969Z,14.70
2018-07-19T01:00:45.715Z,14.70
2018-07-19T01:03:14.428Z,14.70
2018-07-19T01:05:43.199Z,14.60
2018-07-19T01:08:11.891Z,14.60
2018-07-19T01:10:40.627Z,14.60
2018-07-19T01:13:09.351Z,14.60
2018-07-19T01:15:38.106Z,14.50
2018-07-19T01:18:06.916Z,14.50
2018-07-19T01:20:35.647Z,14.40
2018-07-19T01:23:04.410Z,14.40
2018-07-19T01:25:33.153Z,14.40
2018-07-19T01:28:01.847Z,14.30
2018-07-19T01:32:58.898Z,14.30
2018-07-19T01:35:27.655Z,14.20
2018-07-19T01:37:56.401Z,14.20
2018-07-19T01:40:25.117Z,14.10
2018-07-19T01:42:54.146Z,14.10
2018-07-19T01:45:22.871Z,14.10
2018-07-19T01:47:51.625Z,14.10
2018-07-19T01:50:20.404Z,14.10
2018-07-19T01:52:49.142Z,14.00
2018-07-19T01:55:17.853Z,14.00
2018-07-19T01:57:46.572Z,13.90
2018-07-19T02:00:15.380Z,13.90
2018-07-19T02:02:44.028Z,13.80
2018-07-19T02:05:12.764Z,13.80
2018-07-19T02:07:41.482Z,13.80
2018-07-19T02:10:10.232Z,13.80
2018-07-19T02:12:38.983Z,13.80
2018-07-19T02:15:07.736Z,13.80
2018-07-19T02:17:36.450Z,13.80
2018-07-19T02:20:05.151Z,13.70
2018-07-19T02:22:33.895Z,13.70
2018-07-19T02:25:02.585Z,13.70
2018-07-19T02:27:31.323Z,13.60
2018-07-19T02:30:00.016Z,13.60
2018-07-19T02:32:28.744Z,13.60
2018-07-19T02:34:57.446Z,13.50
2018-07-19T02:37:26.227Z,13.50
2018-07-19T02:39:54.916Z,13.50
2018-07-19T02:42:23.642Z,13.50
2018-07-19T02:44:52.325Z,13.40
2018-07-19T02:47:20.999Z,13.40
2018-07-19T02:49:49.703Z,13.30
2018-07-19T02:52:18.410Z,13.30
2018-07-19T02:54:47.168Z,13.30
2018-07-19T02:57:15.910Z,13.30
2018-07-19T02:59:44.647Z,13.20
2018-07-19T03:02:13.411Z,13.20
2018-07-19T03:04:42.151Z,13.10
2018-07-19T03:09:39.227Z,13.10
2018-07-19T03:12:08.000Z,13.00
2018-07-19T03:14:36.939Z,13.00
2018-07-19T03:17:05.690Z,13.00
2018-07-19T03:19:34.483Z,13.00
2018-07-19T03:22:03.280Z,12.90
2018-07-19T03:24:31.986Z,12.90
2018-07-19T03:27:00.683Z,13.00
2018-07-19T03:29:29.382Z,12.90
2018-07-19T03:31:58.238Z,12.90
2018-07-19T03:34:26.958Z,12.90
2018-07-19T03:36:55.731Z,12.80
2018-07-19T03:39:27.452Z,12.80
2018-07-19T03:41:56.209Z,12.80
2018-07-19T03:44:24.944Z,12.80
2018-07-19T03:46:53.681Z,12.80
2018-07-19T03:49:22.679Z,12.70
2018-07-19T03:51:51.473Z,12.70
2018-07-19T03:54:20.252Z,12.70
2018-07-19T03:56:49.009Z,12.80
2018-07-19T03:59:17.813Z,12.80
2018-07-19T04:01:46.653Z,12.90
2018-07-19T04:04:15.442Z,12.90
2018-07-19T04:06:44.243Z,12.90
2018-07-19T04:09:12.967Z,12.90
2018-07-19T04:11:41.713Z,13.00
2018-07-19T04:14:10.446Z,13.00
2018-07-19T04:16:39.215Z,13.00
2018-07-19T04:19:07.978Z,13.10
2018-07-19T04:21:37.018Z,13.10
2018-07-19T04:24:05.838Z,13.20
2018-07-19T04:26:34.603Z,13.20
2018-07-19T04:29:03.384Z,13.20
2018-07-19T04:31:32.139Z,13.20
2018-07-19T04:34:00.859Z,13.30
2018-07-19T04:36:29.669Z,13.30
2018-07-19T04:38:58.418Z,13.40
2018-07-19T04:41:27.155Z,13.50
2018-07-19T04:43:55.871Z,13.60
2018-07-19T04:46:24.542Z,13.70
2018-07-19T04:48:53.238Z,13.80
2018-07-19T04:51:21.955Z,14.00
2018-07-19T04:53:50.627Z,14.20
2018-07-19T04:56:19.322Z,14.20
2018-07-19T04:58:47.978Z,14.40
2018-07-19T05:01:16.916Z,14.40
2018-07-19T05:03:45.621Z,14.50
2018-07-19T05:06:14.386Z,14.60
2018-07-19T05:08:43.042Z,14.70
2018-07-19T05:11:11.736Z,14.90
2018-07-19T05:13:40.415Z,14.90
2018-07-19T05:16:09.084Z,15.00
2018-07-19T05:18:37.812Z,15.10
2018-07-19T05:21:06.532Z,15.20
2018-07-19T05:23:35.217Z,15.40
2018-07-19T05:26:03.916Z,15.60
2018-07-19T05:28:32.614Z,15.60
2018-07-19T05:31:01.302Z,15.80
2018-07-19T05:33:30.013Z,16.10
2018-07-19T05:35:58.714Z,16.40
2018-07-19T05:38:27.366Z,16.60
2018-07-19T05:40:56.115Z,16.60
2018-07-19T05:43:24.767Z,16.70
2018-07-19T05:45:53.479Z,16.70
2018-07-19T05:48:22.173Z,16.90
2018-07-19T05:50:50.887Z,17.00
2018-07-19T05:53:19.636Z,17.20
2018-07-19T05:55:48.289Z,17.20
2018-07-19T05:58:17.034Z,17.30
2018-07-19T06:00:45.710Z,17.30
2018-07-19T06:03:14.422Z,17.40
2018-07-19T06:05:43.177Z,17.50
2018-07-19T06:08:12.001Z,17.60
2018-07-19T06:10:40.913Z,17.70
2018-07-19T06:13:09.614Z,17.80
2018-07-19T06:15:38.313Z,17.80
2018-07-19T06:18:06.997Z,18.00
2018-07-19T06:20:35.713Z,18.10
2018-07-19T06:23:04.482Z,18.20
2018-07-19T06:25:33.179Z,18.30
2018-07-19T06:28:01.873Z,18.50
2018-07-19T06:30:30.591Z,18.60
2018-07-19T06:32:59.281Z,18.80
2018-07-19T06:35:28.009Z,18.90
2018-07-19T06:37:56.745Z,19.10
2018-07-19T06:40:25.466Z,19.10
2018-07-19T06:42:54.233Z,19.30
2018-07-19T06:45:22.960Z,19.40
2018-07-19T06:47:51.698Z,19.50
2018-07-19T06:50:20.405Z,19.80
2018-07-19T06:52:49.110Z,19.90
2018-07-19T06:55:18.927Z,19.90
2018-07-19T06:57:47.653Z,20.00
2018-07-19T07:00:16.338Z,20.20
2018-07-19T07:02:45.150Z,20.20
2018-07-19T07:05:13.866Z,20.30
2018-07-19T07:07:42.586Z,20.30
2018-07-19T07:10:11.313Z,20.40
2018-07-19T07:12:40.097Z,20.40
2018-07-19T07:15:09.240Z,20.50
2018-07-19T07:17:37.933Z,20.50
2018-07-19T07:20:06.988Z,20.60
2018-07-19T07:22:35.663Z,20.70
2018-07-19T07:25:04.454Z,20.80
2018-07-19T07:27:33.164Z,21.00
2018-07-19T07:30:01.836Z,21.20
2018-07-19T07:32:30.543Z,21.30
2018-07-19T07:34:59.302Z,21.40
2018-07-19T07:37:28.071Z,21.60
2018-07-19T07:39:56.790Z,21.50
2018-07-19T07:42:25.539Z,21.50
2018-07-19T07:44:54.233Z,21.60
2018-07-19T07:47:23.153Z,21.60
2018-07-19T07:49:51.850Z,21.70
2018-07-19T07:52:20.595Z,21.90
2018-07-19T07:54:49.274Z,21.90
2018-07-19T07:57:17.974Z,21.90
2018-07-19T07:59:46.760Z,22.10
2018-07-19T08:04:43.855Z,22.10
2018-07-19T08:07:12.581Z,22.30
2018-07-19T08:09:41.313Z,22.10
2018-07-19T08:12:10.090Z,22.20
2018-07-19T08:14:38.900Z,22.40
2018-07-19T08:17:07.681Z,22.20
2018-07-19T08:19:36.350Z,22.20
2018-07-19T08:22:05.090Z,22.30
2018-07-19T08:24:33.807Z,22.50
2018-07-19T08:27:02.514Z,22.60
2018-07-19T08:29:31.221Z,22.60
2018-07-19T08:32:00.643Z,22.60
2018-07-19T08:34:29.344Z,22.80
2018-07-19T08:36:58.475Z,22.90
2018-07-19T08:39:27.167Z,23.00
2018-07-19T08:41:55.961Z,23.00
2018-07-19T08:44:24.677Z,23.00
2018-07-19T08:46:53.555Z,22.90
2018-07-19T08:49:22.322Z,22.90
2018-07-19T08:51:53.072Z,23.00
2018-07-19T08:54:21.795Z,23.10
2018-07-19T08:56:50.584Z,23.10
2018-07-19T08:59:19.395Z,23.10
2018-07-19T09:01:48.150Z,23.20
2018-07-19T09:04:16.942Z,23.10
2018-07-19T09:06:45.716Z,23.10
2018-07-19T09:09:14.518Z,23.10
2018-07-19T09:11:43.234Z,23.20
2018-07-19T09:14:12.088Z,23.40
2018-07-19T09:16:40.806Z,23.40
2018-07-19T09:19:09.562Z,23.60
2018-07-19T09:21:38.278Z,23.60
2018-07-19T09:24:07.054Z,23.70
2018-07-19T09:26:35.854Z,23.80
2018-07-19T09:29:04.666Z,23.90
2018-07-19T09:31:33.782Z,23.90
2018-07-19T09:36:30.957Z,24.00
2018-07-19T09:39:00.383Z,24.00
2018-07-19T09:41:29.093Z,24.00
2018-07-19T09:43:57.875Z,24.10
2018-07-19T09:46:26.581Z,24.20
2018-07-19T09:48:55.392Z,24.10
2018-07-19T09:51:24.044Z,24.10
2018-07-19T09:53:52.833Z,24.10
2018-07-19T09:56:21.578Z,24.10
2018-07-19T09:58:50.306Z,24.20
2018-07-19T10:01:20.108Z,24.30
2018-07-19T10:03:50.419Z,24.20
2018-07-19T10:06:19.212Z,24.20
2018-07-19T10:08:47.929Z,24.20
2018-07-19T10:11:16.792Z,24.20
2018-07-19T10:13:46.011Z,24.20
2018-07-19T10:16:14.679Z,24.10
2018-07-19T10:18:43.567Z,24.20
2018-07-19T10:21:12.300Z,24.30
2018-07-19T10:23:41.150Z,24.40
2018-07-19T10:26:09.964Z,24.50
2018-07-19T10:28:38.795Z,24.80
2018-07-19T10:31:07.482Z,24.90
2018-07-19T10:33:36.229Z,24.90
2018-07-19T10:36:05.051Z,25.00
2018-07-19T10:38:33.887Z,25.10
2018-07-19T10:41:02.585Z,25.30
2018-07-19T10:43:31.289Z,25.30
2018-07-19T10:46:00.043Z,25.30
2018-07-19T10:48:28.726Z,25.50
2018-07-19T10:50:57.418Z,25.70
2018-07-19T10:53:26.107Z,25.90
2018-07-19T10:55:54.787Z,26.10
2018-07-19T10:58:23.438Z,26.20
2018-07-19T11:00:52.148Z,26.30
2018-07-19T11:03:20.842Z,26.10
2018-07-19T11:05:49.547Z,26.00
2018-07-19T11:08:18.210Z,26.20
2018-07-19T11:10:46.942Z,26.70
2018-07-19T11:13:15.588Z,26.80
2018-07-19T11:15:44.253Z,26.60
2018-07-19T11:20:41.251Z,27.10
2018-07-19T11:23:09.933Z,27.40
2018-07-19T11:25:38.613Z,27.60
2018-07-19T11:28:07.319Z,27.60
2018-07-19T11:30:36.002Z,27.60
2018-07-19T11:33:04.735Z,27.50
2018-07-19T11:35:33.391Z,27.50
2018-07-19T11:38:02.082Z,27.80
2018-07-19T11:40:31.330Z,28.10
2018-07-19T11:43:00.012Z,28.40
2018-07-19T11:45:28.707Z,28.10
2018-07-19T11:47:57.386Z,27.70
2018-07-19T11:52:54.362Z,27.30
2018-07-19T11:55:23.098Z,27.30
2018-07-19T11:57:51.788Z,27.40
2018-07-19T12:00:20.504Z,27.70
2018-07-19T12:02:49.154Z,27.50
2018-07-19T12:05:17.831Z,27.50
2018-07-19T12:07:46.507Z,27.60
2018-07-19T12:10:15.193Z,27.60
2018-07-19T12:12:43.880Z,27.70
2018-07-19T12:15:12.622Z,28.00
2018-07-19T12:17:41.528Z,28.00
2018-07-19T12:22:38.550Z,28.20
2018-07-19T12:25:07.669Z,28.60
2018-07-19T12:27:36.334Z,28.70
2018-07-19T12:30:05.671Z,28.60
2018-07-19T12:32:34.379Z,29.00
2018-07-19T12:35:03.106Z,29.00
2018-07-19T12:37:31.838Z,28.90
2018-07-19T12:40:00.534Z,28.90
2018-07-19T12:42:29.457Z,29.30
2018-07-19T12:44:58.170Z,29.80
2018-07-19T12:47:26.845Z,29.80
2018-07-19T12:49:55.562Z,29.80
2018-07-19T12:52:24.784Z,29.50
2018-07-19T12:54:53.502Z,29.70
2018-07-19T12:57:22.218Z,30.00
2018-07-19T12:59:50.918Z,30.70
2018-07-19T13:02:19.638Z,30.70
2018-07-19T13:04:48.306Z,30.90
2018-07-19T13:07:17.081Z,30.80
2018-07-19T13:09:45.756Z,30.70
2018-07-19T13:12:14.828Z,30.80
2018-07-19T13:14:44.065Z,31.00
2018-07-19T13:17:12.895Z,31.60
2018-07-19T13:19:41.622Z,31.20
2018-07-19T13:22:10.533Z,30.80
2018-07-19T13:24:39.291Z,31.10
2018-07-19T13:27:07.952Z,31.60
2018-07-19T13:29:36.650Z,32.20
2018-07-19T13:32:05.361Z,31.50
2018-07-19T13:34:34.057Z,31.50
2018-07-19T13:37:02.864Z,31.60
2018-07-19T13:39:31.518Z,31.90
2018-07-19T13:42:00.238Z,32.10
2018-07-19T13:44:28.899Z,32.40
2018-07-19T13:46:57.616Z,32.90
2018-07-19T13:49:26.273Z,33.20
2018-07-19T13:51:55.019Z,33.20
2018-07-19T13:54:37.839Z,33.30
2018-07-19T13:57:06.578Z,33.60
2018-07-19T13:59:35.227Z,33.50
2018-07-19T14:02:04.030Z,33.40
2018-07-19T14:04:32.705Z,32.10
2018-07-19T14:07:01.370Z,32.80
2018-07-19T14:09:30.073Z,33.00
2018-07-19T14:11:58.782Z,33.50
2018-07-19T14:14:27.510Z,33.60
2018-07-19T14:16:56.204Z,33.60
2018-07-19T14:19:24.887Z,34.20
2018-07-19T14:21:53.561Z,34.20
2018-07-19T14:24:22.265Z,34.10
2018-07-19T14:26:50.945Z,34.10
2018-07-19T14:29:19.649Z,33.50
2018-07-19T14:31:48.323Z,33.80
2018-07-19T14:34:17.031Z,33.40
2018-07-19T14:36:45.708Z,33.80
2018-07-19T14:39:14.400Z,33.80
2018-07-19T14:41:43.293Z,34.00
2018-07-19T14:44:11.958Z,33.70
2018-07-19T14:46:40.660Z,34.10
2018-07-19T14:49:09.325Z,33.40
2018-07-19T14:51:38.025Z,33.20
2018-07-19T14:54:06.759Z,33.80
2018-07-19T14:56:35.443Z,33.80
2018-07-19T14:59:04.515Z,34.20
2018-07-19T15:01:33.220Z,34.40
2018-07-19T15:04:01.931Z,35.20
2018-07-19T15:06:30.614Z,35.60
2018-07-19T15:08:59.327Z,36.30
2018-07-19T15:11:28.020Z,36.30
2018-07-19T15:13:56.710Z,36.30
2018-07-19T15:16:25.437Z,35.50
2018-07-19T15:18:54.107Z,34.30
2018-07-19T15:21:22.797Z,34.20
2018-07-19T15:23:51.451Z,34.20
2018-07-19T15:26:20.138Z,34.70
2018-07-19T15:28:48.847Z,34.70
2018-07-19T15:31:17.540Z,35.00
2018-07-19T15:33:46.245Z,35.70
2018-07-19T15:36:14.946Z,35.20
2018-07-19T15:38:43.658Z,34.80
2018-07-19T15:41:12.331Z,34.90
2018-07-19T15:43:41.050Z,35.00
2018-07-19T15:46:09.704Z,34.90
2018-07-19T15:48:38.401Z,34.80
2018-07-19T15:51:07.092Z,35.10
2018-07-19T15:53:35.777Z,34.80
2018-07-19T15:56:04.479Z,35.20
2018-07-19T15:58:33.166Z,35.40
2018-07-19T16:01:01.866Z,35.40
2018-07-19T16:03:30.516Z,35.30
2018-07-19T16:05:59.233Z,35.00
2018-07-19T16:08:27.886Z,35.90
2018-07-19T16:10:56.570Z,36.00
2018-07-19T16:13:25.226Z,36.60
2018-07-19T16:15:53.926Z,36.50
2018-07-19T16:18:22.607Z,35.40
2018-07-19T16:20:51.683Z,34.40
2018-07-19T16:23:20.539Z,34.20
2018-07-19T16:25:49.334Z,34.80
2018-07-19T16:28:18.134Z,35.20
2018-07-19T16:30:46.934Z,35.00
2018-07-19T16:33:15.623Z,35.20
2018-07-19T16:35:44.323Z,35.40
2018-07-19T16:38:13.122Z,34.80
2018-07-19T16:40:41.842Z,33.70
2018-07-19T16:43:10.563Z,33.40
2018-07-19T16:45:39.274Z,33.20
2018-07-19T16:48:08.043Z,33.70
2018-07-19T16:50:43.323Z,33.90
2018-07-19T16:53:12.015Z,34.20
2018-07-19T16:55:40.729Z,34.60
2018-07-19T16:58:09.381Z,34.90
2018-07-19T17:00:38.083Z,34.90
2018-07-19T17:03:06.898Z,34.60
2018-07-19T17:05:35.630Z,34.80
2018-07-19T17:08:04.314Z,34.70
2018-07-19T17:10:32.987Z,34.40
2018-07-19T17:13:01.717Z,34.20
2018-07-19T17:15:30.385Z,34.30
2018-07-19T17:18:00.015Z,34.80
2018-07-19T17:20:28.671Z,34.80
2018-07-19T17:22:57.388Z,34.60
2018-07-19T17:25:26.058Z,34.50
2018-07-19T17:27:54.771Z,34.10
2018-07-19T17:30:23.503Z,33.60
2018-07-19T17:32:52.197Z,33.70
2018-07-19T17:35:26.590Z,33.50
2018-07-19T17:37:58.823Z,33.10
2018-07-19T17:40:27.565Z,32.40
2018-07-19T17:42:56.268Z,31.40
2018-07-19T17:45:24.993Z,30.60
2018-07-19T17:47:53.738Z,29.90
2018-07-19T17:50:22.446Z,29.30
2018-07-19T17:52:51.126Z,29.00
2018-07-19T17:55:19.846Z,28.70
2018-07-19T17:57:48.535Z,28.50
2018-07-19T18:00:17.512Z,28.30
2018-07-19T18:02:46.392Z,28.00
2018-07-19T18:05:15.201Z,27.90
2018-07-19T18:07:47.476Z,27.90
2018-07-19T18:10:16.159Z,27.80
2018-07-19T18:12:44.873Z,27.70
2018-07-19T18:15:13.523Z,27.50
2018-07-19T18:17:42.219Z,27.40
2018-07-19T18:20:10.895Z,27.30
2018-07-19T18:22:39.581Z,27.20
2018-07-19T18:25:08.415Z,27.10
2018-07-19T18:27:37.319Z,27.00
2018-07-19T18:30:07.556Z,26.90
2018-07-19T18:32:37.230Z,26.80
2018-07-19T18:35:06.112Z,26.70
2018-07-19T18:37:34.900Z,26.70
2018-07-19T18:40:04.522Z,26.50
2018-07-19T18:42:33.228Z,26.40
2018-07-19T18:45:01.974Z,26.30
2018-07-19T18:47:35.566Z,26.20
2018-07-19T18:50:04.379Z,26.10
2018-07-19T18:52:33.054Z,26.10
2018-07-19T18:55:01.747Z,25.90
2018-07-19T18:57:30.411Z,25.80
2018-07-19T18:59:59.243Z,25.70
2018-07-19T19:02:28.023Z,25.70
2018-07-19T19:04:56.892Z,25.60
2018-07-19T19:07:25.679Z,25.40
2018-07-19T19:09:54.357Z,25.30
2018-07-19T19:12:23.112Z,25.20
2018-07-19T19:14:52.633Z,25.10
2018-07-19T19:17:21.385Z,25.10
2018-07-19T19:19:50.073Z,25.00
2018-07-19T19:22:18.801Z,24.90
2018-07-19T19:24:47.522Z,24.80
2018-07-19T19:27:16.227Z,24.60
2018-07-19T19:29:44.892Z,24.40
2018-07-19T19:32:13.604Z,24.20
2018-07-19T19:34:42.333Z,24.00
2018-07-19T19:37:11.078Z,23.80
2018-07-19T19:39:39.763Z,23.50
2018-07-19T19:42:08.545Z,23.30
2018-07-19T19:44:37.691Z,23.20
2018-07-19T19:47:12.126Z,22.90
2018-07-19T19:49:40.818Z,22.80
2018-07-19T19:52:09.499Z,22.70
2018-07-19T19:54:38.285Z,22.50
2018-07-19T19:57:07.012Z,22.40
2018-07-19T19:59:35.764Z,22.20
2018-07-19T20:02:04.498Z,22.00
2018-07-19T20:04:33.253Z,21.90
2018-07-19T20:07:01.982Z,21.70
2018-07-19T20:11:59.026Z,21.40
2018-07-19T20:14:27.767Z,21.30
2018-07-19T20:16:57.291Z,21.20
2018-07-19T20:19:31.121Z,21.10
2018-07-19T20:21:59.879Z,21.00
2018-07-19T20:24:28.526Z,20.90
2018-07-19T20:26:57.206Z,20.70
2018-07-19T20:29:25.862Z,20.60
2018-07-19T20:31:54.597Z,20.50
2018-07-19T20:34:23.255Z,20.50
2018-07-19T20:36:51.992Z,20.40
2018-07-19T20:39:20.663Z,20.30
2018-07-19T20:41:49.406Z,20.20
2018-07-19T20:44:18.105Z,20.20
2018-07-19T20:49:15.165Z,20.10
2018-07-19T20:54:12.433Z,19.80
2018-07-19T20:56:41.116Z,19.70
2018-07-19T20:59:09.798Z,19.60
2018-07-19T21:01:38.454Z,19.50
2018-07-19T21:04:07.227Z,19.30
2018-07-19T21:06:35.889Z,19.30
2018-07-19T21:09:07.293Z,19.20
2018-07-19T21:11:35.990Z,19.10
2018-07-19T21:14:04.707Z,19.00
2018-07-19T21:16:34.363Z,18.90
2018-07-19T21:19:03.303Z,18.80
2018-07-19T21:21:32.086Z,18.80
2018-07-19T21:24:00.742Z,18.70
2018-07-19T21:26:29.430Z,18.60
2018-07-19T21:28:58.074Z,18.50
2018-07-19T21:31:26.794Z,18.50
2018-07-19T21:33:55.442Z,18.40
2018-07-19T21:36:24.309Z,18.40
2018-07-19T21:38:53.019Z,18.40
2018-07-19T21:41:21.676Z,18.40
2018-07-19T21:43:50.399Z,18.30
2018-07-19T21:46:19.131Z,18.20
2018-07-19T21:48:47.825Z,18.10
2018-07-19T21:51:16.501Z,18.00
2018-07-19T21:53:45.171Z,17.90
2018-07-19T21:56:13.886Z,17.80
2018-07-19T21:58:42.561Z,17.70
2018-07-19T22:01:12.097Z,17.60
2018-07-19T22:03:40.966Z,17.60
2018-07-19T22:06:10.130Z,17.50
2018-07-19T22:08:38.822Z,17.50
2018-07-19T22:11:07.587Z,17.50
2018-07-19T22:13:36.267Z,17.40
2018-07-19T22:16:04.996Z,17.40
2018-07-19T22:18:33.655Z,17.30
2018-07-19T22:21:02.333Z,17.30
2018-07-19T22:23:30.990Z,17.20
2018-07-19T22:25:59.708Z,17.10
2018-07-19T22:28:28.358Z,17.00
2018-07-19T22:30:57.044Z,17.00
2018-07-19T22:33:25.765Z,16.90
2018-07-19T22:35:54.445Z,16.80
2018-07-19T22:38:23.173Z,16.80
2018-07-19T22:40:51.856Z,16.70
2018-07-19T22:43:20.535Z,16.60
2018-07-19T22:45:49.202Z,16.60
2018-07-19T22:48:17.899Z,16.60
2018-07-19T22:50:46.554Z,16.60
2018-07-19T22:55:43.557Z,16.50
2018-07-19T22:58:12.231Z,16.40
2018-07-19T23:00:40.901Z,16.40
2018-07-19T23:03:09.591Z,16.40
2018-07-19T23:05:38.293Z,16.30
2018-07-19T23:08:06.981Z,16.40
2018-07-19T23:10:35.704Z,16.40
2018-07-19T23:13:04.392Z,16.30
2018-07-19T23:15:33.072Z,16.30
2018-07-19T23:18:01.770Z,16.30
2018-07-19T23:20:30.445Z,16.30
2018-07-19T23:23:00.049Z,16.20
2018-07-19T23:25:28.762Z,16.20
2018-07-19T23:27:57.706Z,16.10
2018-07-19T23:30:28.765Z,16.10
2018-07-19T23:32:57.865Z,15.90
2018-07-19T23:35:30.657Z,15.90
2018-07-19T23:38:01.168Z,15.90
2018-07-19T23:40:34.448Z,15.80
2018-07-19T23:43:06.770Z,15.80
2018-07-19T23:46:09.987Z,15.70
2018-07-19T23:48:38.708Z,15.70
2018-07-19T23:51:07.553Z,15.60
2018-07-19T23:53:36.198Z,15.50
2018-07-19T23:56:04.894Z,15.50
2018-07-19T23:58:33.597Z,15.50
